Tiempo atmosférico en la estación meteorológica de Reus Aeropuerto, Tarragona (71 m.)



Fecha
DESCASC
Temp. máxima en grados centígrados (hora)
DESCASC
Temp. mínima en grados centígrados (hora)
DESCASC
Temp. media en grados centígrados
DESCASC
Racha de viento máxima en m/sg (hora)
DESCASC
Velocidad máxima media en intervalos de 10 minutos(hora)
DESCASC
Precipitaciones diarias en mm
DESCASC
Precipitaciones de 00:00 a 06:00 en mm
DESCASC
Precipitaciones de 06:00 a 12:00 en mm
DESCASC
Precipitaciones de 12:00 a 18:00 en mm
DESCASC
Precipitaciones de 18:00 a 24:00 en mm
DESCASC
10-05-2019 25.9 (12:10) 12.2 (00:00) 19 7.78 (13:40) 5.83 (13:30) 0.2 0 0 0 0.2
23-05-2019 23.1 (11:20) 12.1 (04:50) 17.6 8.33 (15:00) 4.44 (11:50) 0 0 0 0 0
22-05-2019 23.6 (14:40) 14.2 (07:10) 18.9 8.33 (17:40) 5.83 (18:00) 0 0 0 0 0
21-05-2019 22.9 (15:10) 10.2 (06:30) 16.5 9.17 (13:10) 5.83 (15:20) 0 0 0 0 0
20-05-2019 25.8 (15:40) 8 (05:20) 16.9 13.89 (16:30) 10 (16:20) 0 0 0 0 0
19-05-2019 24 (16:40) 12 (00:00) 18 15 (16:30) 9.17 (16:20) 0 0 0 0 0
18-05-2019 22.8 (14:30) 10.2 (00:00) 16.5 14.44 (15:00) 8.61 (12:30) 0 0 0 0 0
17-05-2019 20 (16:40) 12.3 (00:00) 16.2 14.44 (19:00) 9.17 (18:10) 7 0 7 0 0
16-05-2019 19.1 (12:30) 9.1 (00:00) 14.1 8.33 (13:30) 5.56 (23:59) 0 0 0 0 0
15-05-2019 20.6 (11:30) 12 (00:00) 16.3 11.67 (12:40) 8.33 (15:20) 0 0 0 0 0
14-05-2019 22.8 (12:30) 9 (00:00) 15.9 10.83 (13:10) 6.94 (15:10) 0 0 0 0 0
13-05-2019 21.5 (14:00) 8.4 (00:00) 14.9 8.33 (14:30) 5.83 (15:40) 0 0 0 0 0
12-05-2019 28.5 (16:30) 10.6 (00:00) 19.6 12.78 (11:20) 8.61 (16:10) 0 0 0 0 0
11-05-2019 23.5 (12:10) 14.1 (00:00) 18.8 8.33 (12:50) 6.11 (14:30) 0 0 0 0 0
26-04-2019 23 (16:50) 8.6 (00:00) 15.8 16.94 (13:20) 12.22 (13:50) 0 0 0 0 0
09-05-2019 24.7 (12:30) 15.2 (00:00) 20 16.94 (09:20) 11.39 (09:30) 0 0 0 0 0
08-05-2019 23.6 (23:10) 15.2 (00:00) 19.4 11.39 (23:00) 6.94 (23:00) 0 0 0 0 0
07-05-2019 17.6 (16:40) 10.2 (00:00) 13.9 5.83 (01:40) 3.89 (01:20) 0 0 0 0 0
06-05-2019 19.2 (13:20) 5.5 (00:00) 12.4 9.17 (12:40) 5.28 (19:30) 0 0 0 0 0
05-05-2019 22.5 (16:40) 10.1 (00:00) 16.3 18.06 (01:20) 11.67 (01:40) 0 0 0 0 0
04-05-2019 22.9 (15:50) 6.7 (00:00) 14.8 16.11 (07:50) 11.67 (07:50) 0 0 0 0 0
02-05-2019 22.1 (13:50) 11.1 (01:30) 16.6 9.17 (15:50) 6.39 (15:40) 0.7 0 0.7 0 0
01-05-2019 20.4 (14:40) 12.1 (00:00) 16.3 8.33 (13:30) 5.28 (15:00) 0 0 0 0 0
30-04-2019 20 (14:30) 13.3 (00:00) 16.7 9.17 (17:00) 6.11 (16:30) 0.1 0 0.1 0 0
29-04-2019 19 (18:10) 13.2 (00:00) 16.1 8.33 (16:30) 4.72 (13:40) 0 0 0 0 0
28-04-2019 20.7 (13:20) 6.9 (00:00) 13.8 9.72 (16:10) 6.39 (16:10) 0 0 0 0 0
27-04-2019 24.4 (15:40) 8.8 (00:00) 16.6 13.89 (16:40) 10 (16:40) 0 0 0 0 0
03-05-2019 15 (02:10) 10.1 (00:00) 12.6 8.33 (08:40) 5.83 (08:40) 1.9 0 1.4 0.5 0

Gráficas

Temp. máximas Temp. mínimas Temp. medias Precipitaciones Rachas de viento máximas Velocidades máximas media en intervalos de 10 minutos

Datos horarios

Fecha y hora oficial Temperatura (ºC) Velocidad del viento (km/h) Dirección del viento Racha (km/h) Dirección de racha Precipitación (mm) Presión (hPa) Tendencia (hPa) Humedad (%)
2019-05-25 23:00:00 20 19 Oeste 32 Noroeste 0 1007.9 1.8 60
2019-05-25 22:00:00 20 11 Noroeste 28 Oeste 0 1007.1 1.1 70
2019-05-25 21:00:00 21 18 Oeste 32 Oeste 0 1006.3 0.2 61
2019-05-25 20:00:00 22.9 17 Sur 26 Sur 0 1006.1 -0.3 55
2019-05-25 19:00:00 24.3 18 Sudoeste 24 Sudoeste 0 1006 -0.7 49
2019-05-25 18:00:00 24.4 5 Nordeste 11 Oeste 0 1006.1 -1 48
2019-05-25 17:00:00 24.4 4 Oeste 13 Este 0 1006.4 -0.9 48
2019-05-25 16:00:00 24.6 6 Nordeste 13 Sudeste 0 1006.7 -0.8 49
2019-05-25 15:00:00 23.2 7 Este 13 Nordeste 0 1007.1 -0.3 49
2019-05-25 14:00:00 21.9 5 Nordeste 22 Norte 0 1007.3 0.1 53
2019-05-25 13:00:00 21.8 12 Oeste 21 Oeste 0 1007.5 0.3 60
2019-05-25 12:00:00 21.6 13 Oeste 24 Oeste 0 1007.4 0.4 62
2019-05-25 11:00:00 20 7 Oeste 15 Oeste 0 1007.2 0.8 68
2019-05-25 10:00:00 18.1 6 Sudoeste 13 Oeste 0 1007.2 1 76
2019-05-25 09:00:00 16.1 3 Noroeste 13 Oeste 0 1007 0.9 88
2019-05-25 08:00:00 14.8 10 Oeste 17 Oeste 0 1006.4 0.3 92
2019-05-25 07:00:00 14.6 8 Noroeste 11 Noroeste 0 1006.2 -0.1 98
2019-05-25 06:00:00 14.4 4 Oeste 8 Oeste 0.1 1006.1 -0.2 99
2019-05-25 05:00:00 14.4 6 Sudoeste 8 Oeste 1.1 1006.1 -0.4 100
2019-05-25 04:00:00 14.3 4 Sudoeste 8 Sudoeste 0.1 1006.3 -0.5 99
2019-05-25 03:00:00 14.1 0 Calma 5 Este 0.5 1006.3 -0.6 97
2019-05-25 02:00:00 14.5 3 Sudeste 4 Sudeste 0.2 1006.5 -0.3 97
2019-05-25 01:00:00 14.3 0 Calma 8 Este 0.7 1006.8 0.5 97
2019-05-25 00:00:00 14.4 5 Este 11 Este 0 1006.9 1.1 98
2019-05-24 23:00:00 14.5 9 Este 13 Nordeste 0.5 1006.8 1.4 100
2019-05-24 22:00:00 14.7 12 Este 18 Este 1.7 1006.3 1.1 100
2019-05-24 21:00:00 14.8 2 Nordeste 11 Sur 4.2 1005.8 0.4 98
2019-05-24 20:00:00 15.1 9 Sur 18 Sur 2.5 1005.4 -0.1 95
2019-05-24 19:00:00 16 14 Sur 21 Sur 0.3 1005.2 -0.8 91
2019-05-24 18:00:00 17.4 14 Sur 18 Sur 0.1 1005.4 -0.7 87
2019-05-24 17:00:00 18.2 12 Sudoeste 17 Sudoeste 0 1005.5 -0.8 79
2019-05-24 16:00:00 17.9 10 Sudoeste 24 Oeste 0 1006 -0.6 81
2019-05-24 15:00:00 17.6 18 Oeste 32 Noroeste 0 1006.1 -0.5 84
2019-05-24 14:00:00 17 11 Sudoeste 17 Sudoeste 0.5 1006.3 -0.5 94
2019-05-24 13:00:00 15.8 10 Sudoeste 17 Sudoeste 1.9 1006.6 0.2 95
2019-05-24 12:00:00 15.3 4 Sudoeste 26 Sudoeste 8.5 1006.6 0.4 98
2019-05-24 11:00:00 15.6 14 Sudoeste 21 Sudoeste 7.4 1006.8 0.7 97
2019-05-24 10:00:00 16.4 0 Calma 8 Norte 0.1 1006.4 0.8 91
2019-05-24 09:00:00 16 2 Nordeste 11 Sudoeste 0 1006.2 -0.1 90
2019-05-24 08:00:00 15.4 7 Sur 24 Norte 0.1 1006.1 0.2 96
2019-05-24 07:00:00 15.4 10 Norte 18 Norte 2.6 1005.6 -0.6 97
2019-05-24 06:00:00 16.2 4 Noroeste 15 Sudoeste 1 1006.3 0 88
2019-05-24 05:00:00 16.7 4 Norte 9 Norte 0.1 1005.9 -1.1 87
2019-05-24 04:00:00 17.1 6 Nordeste 13 Nordeste 0 1006.2 -1 89
2019-05-24 03:00:00 16.7 6 Norte 11 Norte 0 1006.3 -0.8 94
2019-05-24 02:00:00 16.4 8 Nordeste 11 Nordeste 0 1007 -0.4 96
2019-05-24 01:00:00 16.8 8 Este 11 Nordeste 0 1007.2 0.3 96
2019-05-24 00:00:00 16.4 7 Este 11 Este 0 1007.1 0.5 97
2019-05-23 23:00:00 17.4 6 Este 11 Este 0 1007.4 0.8 94
2019-05-23 22:00:00 17.2 7 Este 11 Este 0 1006.9 0.2 93
2019-05-23 21:00:00 18.7 6 Sur 11 Sudoeste 0 1006.6 -0.1 82
2019-05-23 20:00:00 19.7 8 Sur 15 Sur 0 1006.6 -0.2 78
2019-05-23 19:00:00 20.2 10 Sur 17 Sudoeste 0 1006.7 -0.4 78
2019-05-23 18:00:00 20.3 9 Sur 17 Sur 0 1006.7 -0.9 78
2019-05-23 17:00:00 21 11 Sur 21 Sudeste 0 1006.8 -1 74
2019-05-23 16:00:00 21.8 14 Sur 26 Sur 0 1007.1 -1.1 71
2019-05-23 15:00:00 22.1 14 Sur 30 Sur 0 1007.6 -1.1 69
2019-05-23 14:00:00 22.1 12 Sudeste 26 Sudeste 0 1007.8 -0.8 67
2019-05-23 13:00:00 22.2 13 Sudeste 22 Sudeste 0 1008.2 -0.6 64
2019-05-23 12:00:00 22 15 Sudeste 22 Sur 0 1008.7 -0.1 65
2019-05-23 11:00:00 22.4 5 Sudeste 17 Sur 0 1008.6 -0.3 61
2019-05-23 10:00:00 20.7 3 Sur 11 Sudoeste 0 1008.8 0 65
2019-05-23 09:00:00 17.9 8 Nordeste 13 Nordeste 0 1008.8 0.1 81
2019-05-23 08:00:00 14.4 6 Nordeste 11 Nordeste 0 1008.9 0.1 84
2019-05-23 07:00:00 13.5 5 Nordeste 9 Norte 0 1008.8 -0.1 88
2019-05-23 06:00:00 13.4 6 Norte 9 Norte 0 1008.7 -0.4 91
2019-05-23 05:00:00 12.5 4 Norte 8 Nordeste 0 1008.8 -0.6 94
2019-05-23 04:00:00 13.3 5 Norte 9 Norte 0 1008.9 -0.8 92
2019-05-23 03:00:00 13.9 6 Norte 11 Norte 0 1009.1 -0.6 92
2019-05-23 02:00:00 14.2 8 Norte 11 Nordeste 0 1009.4 -0.3 89
2019-05-23 01:00:00 15.6 5 Norte 8 Norte 0 1009.7 0.5 93
2019-05-23 00:00:00 16.4 4 Sudeste 8 Sur 0 1009.7 1.1 92
2019-05-22 23:00:00 17.2 4 Sudoeste 8 Sur 0 1009.7 1.4 92
2019-05-22 22:00:00 17.3 3 Sur 9 Sur 0 1009.2 0.8 91
2019-05-22 21:00:00 18.5 7 Sur 15 Sur 0 1008.6 0.2 82
2019-05-22 20:00:00 20.3 7 Sur 21 Sur 0 1008.3 -0.3 68
2019-05-22 19:00:00 21.2 17 Sur 24 Sudoeste 0 1008.4 -0.4 51
2019-05-22 18:00:00 22.2 21 Sudoeste 30 Sudoeste 0 1008.4 -0.4 46
2019-05-22 17:00:00 22.2 15 Sur 28 Sur 0 1008.6 -0.3 53
2019-05-22 16:00:00 22.9 14 Sudoeste 24 Sur 0 1008.8 -0.5 51
2019-05-22 15:00:00 22.9 17 Sur 28 Sudoeste 0 1008.8 -0.6 46
2019-05-22 14:00:00 22.8 15 Sur 26 Sur 0 1008.9 -0.4 50
2019-05-22 13:00:00 22.8 16 Sur 26 Sudeste 0 1009.3 -0.1 51
2019-05-22 12:00:00 22 12 Sur 21 Sudoeste 0 1009.4 0 58
2019-05-22 11:00:00 21.3 13 Sur 26 Sur 0 1009.3 0.2 65
2019-05-22 10:00:00 19.6 4 Sudoeste 9 Sudoeste 0 1009.4 0.7 59
2019-05-22 09:00:00 17.8 4 Norte 9 Este 0 1009.4 1 70
2019-05-22 08:00:00 16.5 0 Calma 8 Norte 0 1009.1 0.7 90
2019-05-22 07:00:00 14.5 0 Calma 8 Norte 0 1008.7 0.3 92
2019-05-22 06:00:00 15.2 5 Norte 5 Norte 0 1008.4 0 90
2019-05-22 05:00:00 15 4 Nordeste 9 Nordeste 0 1008.4 -0.2 96
2019-05-22 04:00:00 15.8 5 Este 8 Este 0 1008.4 -0.2 93
2019-05-22 03:00:00 16.7 4 Nordeste 8 Nordeste 0 1008.4 -0.2 93
2019-05-22 02:00:00 16.6 4 Norte 11 Nordeste 0 1008.6 0.3 93
2019-05-22 01:00:00 16.5 5 Nordeste 11 Este 0 1008.6 0.9 95
2019-05-22 00:00:00 16.1 3 Este 13 Sudeste 0 1008.6 1.2 95
2019-05-21 23:00:00 16.6 3 Este 8 Sur 0 1008.3 1.3 92
2019-05-21 22:00:00 17.6 5 Sur 11 Sudoeste 0 1007.7 1.1 87
2019-05-21 21:00:00 17.6 9 Sudoeste 21 Sudoeste 0 1007.4 1.2 83
2019-05-21 20:00:00 18.3 14 Sudoeste 24 Sudoeste 0 1007 0.6 79
2019-05-21 19:00:00 20.5 17 Sur 24 Sur 0 1006.6 0.3 58
2019-05-21 18:00:00 21.6 15 Sur 28 Sur 0 1006.2 -0.1 52
2019-05-21 17:00:00 22.1 21 Sudoeste 30 Sur 0 1006.4 -0.2 50
2019-05-21 16:00:00 22.4 20 Sur 30 Sur 0 1006.3 -0.6 47
2019-05-21 15:00:00 22.5 19 Sudoeste 26 Sudoeste 0 1006.3 -0.6 42
2019-05-21 14:00:00 21.3 18 Sur 33 Sur 0 1006.6 -0.5 52
2019-05-21 13:00:00 21.3 17 Sur 26 Sur 0 1006.9 -0.2 60
2019-05-21 12:00:00 20.5 12 Sur 22 Sur 0 1006.9 -0.1 61
2019-05-21 11:00:00 19.8 5 Oeste 13 Sudoeste 0 1007.1 0.5 58
2019-05-21 10:00:00 17.4 5 Norte 9 Norte 0 1007.1 0.9 69
2019-05-21 09:00:00 15.3 5 Nordeste 11 Norte 0 1007 1.3 80
2019-05-21 08:00:00 12.4 10 Norte 15 Norte 0 1006.6 1.1 85
2019-05-21 07:00:00 11.2 5 Nordeste 11 Norte 0 1006.2 0.5 93
2019-05-21 06:00:00 11.3 8 Norte 13 Norte 0 1005.7 -0.4 93
2019-05-21 05:00:00 11.1 5 Nordeste 11 Nordeste 0 1005.5 -0.8 93
2019-05-21 04:00:00 12.1 9 Norte 13 Norte 0 1005.7 -0.5 92
2019-05-21 03:00:00 12.5 10 Norte 13 Norte 0 1006.1 0.1 89
2019-05-21 02:00:00 12.7 9 Norte 13 Norte 0 1006.3 0.8 89
2019-05-21 01:00:00 13.2 8 Norte 13 Norte 0 1006.2 1.6 88
2019-05-21 00:00:00 13.8 9 Norte 13 Norte 0 1006 2 83
2019-05-20 23:00:00 14.5 9 Nordeste 15 Nordeste 0 1005.5 2.1 83
2019-05-20 22:00:00 14.6 9 Este 15 Sudeste 0 1004.6 1.7 81
2019-05-20 21:00:00 16.8 9 Sudeste 18 Sudeste 0 1004 1.6 68
2019-05-20 20:00:00 18.4 14 Sur 30 Sudoeste 0 1003.4 1.1 60
2019-05-20 19:00:00 19.6 18 Sudoeste 37 Sudoeste 0 1002.9 0.9 53
2019-05-20 18:00:00 20.2 28 Sudoeste 48 Sudoeste 0 1002.4 0.1 51
2019-05-20 17:00:00 20.6 34 Sur 50 Sudoeste 0 1002.3 -0.3 49
2019-05-20 16:00:00 25.5 24 Oeste 41 Oeste 0 1002 -0.9 23
2019-05-20 15:00:00 25.1 23 Oeste 48 Sudoeste 0 1002.3 -0.7 28
2019-05-20 14:00:00 23.6 17 Sudoeste 30 Sudoeste 0 1002.6 -0.5 34
2019-05-20 13:00:00 22.7 14 Oeste 30 Oeste 0 1002.9 -0.2 36
2019-05-20 12:00:00 21.3 16 Oeste 32 Oeste 0 1003 0 40
2019-05-20 11:00:00 19.5 16 Oeste 33 Oeste 0 1003.1 0.5 44
2019-05-20 10:00:00 17.1 3 Este 11 Este 0 1003.1 0.9 53
2019-05-20 09:00:00 14.8 7 Este 24 Noroeste 0 1003 1.3 65
2019-05-20 08:00:00 13 15 Oeste 24 Oeste 0 1002.6 1 67
2019-05-20 07:00:00 9.9 10 Noroeste 17 Noroeste 0 1002.2 0.6 83
2019-05-20 06:00:00 9.2 6 Nordeste 9 Norte 0 1001.7 -0.2 88
2019-05-20 05:00:00 8.8 5 Norte 9 Norte 0 1001.6 -0.6 89
2019-05-20 04:00:00 10.2 5 Noroeste 11 Noroeste 0 1001.6 -1 84
2019-05-20 03:00:00 11 7 Noroeste 41 Oeste 0 1001.9 -1 84
2019-05-20 02:00:00 12.8 16 Oeste 32 Oeste 0 1002.2 -0.7 70
2019-05-20 01:00:00 11.6 11 Sudoeste 13 Sudoeste 0 1002.6 -0.1 84
2019-05-20 00:00:00 12.1 6 Sur -- -- 0 1002.9 1 80
2019-05-19 23:00:00 13.7 4 Sur 9 Norte 0 1002.9 1.7 78
2019-05-19 22:00:00 13.7 8 Norte 11 Norte 0 1002.7 2.1 79
2019-05-19 21:00:00 13.6 5 Este 22 Este 0 1001.9 2 80
2019-05-19 20:00:00 14.5 16 Nordeste 33 Este 0 1001.2 1.9 76
2019-05-19 19:00:00 16.6 19 Este 28 Este 0 1000.6 2.4 65
2019-05-19 18:00:00 16.3 13 Este 37 Este 0 999.9 1.5 69
2019-05-19 17:00:00 17.8 25 Este 54 Oeste 0 999.3 0.7 54
2019-05-19 16:00:00 23 32 Oeste 46 Noroeste 0 998.2 -0.7 34
2019-05-19 15:00:00 22.6 26 Oeste 45 Noroeste 0 998.4 -0.6 35
2019-05-19 14:00:00 21.7 31 Oeste 46 Noroeste 0 998.6 -0.7 36
2019-05-19 13:00:00 19.6 26 Oeste 42 Oeste 0 998.9 -0.4 43
2019-05-19 12:00:00 19.3 26 Oeste 48 Oeste 0 999 -0.4 44
2019-05-19 11:00:00 17.7 18 Noroeste 32 Oeste 0 999.3 0.3 47
2019-05-19 10:00:00 15.4 20 Oeste 35 Oeste 0 999.3 0.5 53
2019-05-19 09:00:00 13.9 12 Oeste 50 Oeste 0 999.4 0.5 58
2019-05-19 08:00:00 13.1 29 Noroeste 48 Noroeste 0 999 -0.2 60
2019-05-19 07:00:00 12.7 26 Noroeste 42 Noroeste 0 998.8 -0.6 61
2019-05-19 06:00:00 12.9 26 Noroeste 46 Noroeste 0 998.9 -1 58
2019-05-19 05:00:00 13.2 22 Noroeste 35 Norte 0 999.2 -1.1 57
2019-05-19 04:00:00 13 21 Oeste 39 Oeste 0 999.4 -1.1 58
2019-05-19 03:00:00 13.3 24 Oeste 37 Oeste 0 999.9 -0.7 56
2019-05-19 02:00:00 13.7 17 Oeste 26 Oeste 0 1000.3 -0.3 55
2019-05-19 01:00:00 15 13 Noroeste 35 Noroeste 0 1000.5 0.6 50
2019-05-19 00:00:00 15.4 21 Oeste 39 Oeste 0 1000.6 1.5 51
2019-05-18 23:00:00 16.5 17 Oeste 33 Noroeste 0 1000.6 2.1 46
2019-05-18 22:00:00 17.8 20 Oeste 42 Oeste 0 999.9 1.8 40
2019-05-18 21:00:00 17.7 22 Oeste 37 Oeste 0 999.1 1.2 46
2019-05-18 20:00:00 17.9 21 Sur 33 Sudoeste 0 998.5 0.9 57
2019-05-18 19:00:00 18.6 20 Sur 37 Sudoeste 0 998.1 0.2 51
2019-05-18 18:00:00 20.5 22 Sudoeste 46 Noroeste 0 997.9 -0.3 44
2019-05-18 17:00:00 22.6 29 Oeste 46 Oeste 0 997.6 -0.9 25
2019-05-18 16:00:00 22.3 28 Oeste 48 Noroeste 0 997.9 -0.9 27
2019-05-18 15:00:00 21.6 29 Oeste 52 Oeste 0 998.2 -0.3 27
2019-05-18 14:00:00 21.2 27 Oeste 41 Oeste 0 998.5 -0.4 30
2019-05-18 13:00:00 20.9 31 Oeste 45 Oeste 0 998.8 -0.2 31
2019-05-18 12:00:00 19.3 8 Este 24 Oeste 0 998.5 -0.2 43
2019-05-18 11:00:00 18.3 12 Este 21 Nordeste 0 998.9 0.2 47
2019-05-18 10:00:00 15.6 11 Este 18 Sudeste 0 999 0.2 52
2019-05-18 09:00:00 15.1 9 Este 24 Norte 0 998.7 0.4 53
2019-05-18 08:00:00 13 3 Oeste 15 Oeste 0 998.7 0.3 62
2019-05-18 07:00:00 10.6 13 Oeste 21 Oeste 0 998.8 0.3 72
2019-05-18 06:00:00 10.8 14 Oeste 26 Oeste 0 998.3 -0.5 72
2019-05-18 05:00:00 11.8 23 Oeste 33 Oeste 0 998.4 -0.6 67
2019-05-18 04:00:00 12.7 23 Oeste 30 Oeste 0 998.5 -0.4 65
2019-05-18 03:00:00 12.7 8 Noroeste 15 Noroeste 0 998.8 -0.4 69
2019-05-18 02:00:00 12.8 12 Noroeste 22 Noroeste 0 999 0 82
2019-05-18 01:00:00 14.2 12 Oeste 22 Oeste 0 998.9 0.8 62
2019-05-18 00:00:00 14.3 18 Oeste 28 Oeste 0 999.2 2.1 66
2019-05-17 23:00:00 14.9 15 Oeste 28 Oeste 0 999 2.9 65
2019-05-17 22:00:00 15.7 18 Oeste 39 Oeste 0 998.1 2.6 61
2019-05-17 21:00:00 16.6 20 Noroeste 37 Oeste 0 997.1 1.6 57
2019-05-17 20:00:00 17 19 Oeste 52 Oeste 0 996.1 0.9 58
2019-05-17 19:00:00 16.7 31 Oeste 52 Oeste 0 995.5 0.3 61
2019-05-17 18:00:00 18.4 32 Oeste 45 Noroeste 0 995.5 0.8 58
2019-05-17 17:00:00 18.9 22 Oeste 33 Oeste 0 995.2 0.6 56
2019-05-17 16:00:00 18.6 9 Sur 18 Sudeste 0 995.2 0.9 57
2019-05-17 15:00:00 18.1 11 Este 28 Noroeste 0 994.7 1 56
2019-05-17 14:00:00 17.3 18 Noroeste 39 Oeste 0 994.6 1.1 58
2019-05-17 13:00:00 16.1 28 Oeste 42 Noroeste 0 994.3 0.5 62
2019-05-17 12:00:00 14.4 24 Oeste 41 Oeste 0 993.7 0 68
2019-05-17 11:00:00 14.6 16 Oeste 42 Oeste 0 993.5 -0.1 70
2019-05-17 10:00:00 13.6 31 Oeste 45 Oeste 0 993.8 1.1 75
2019-05-17 09:00:00 13.5 16 Oeste 24 Oeste 0 993.7 0.5 80
2019-05-17 08:00:00 12.5 8 Noroeste 15 Oeste 0.8 993.6 -0.5 97
2019-05-17 07:00:00 12.4 7 Norte 26 Norte 6.2 992.7 -1.6 96
2019-05-17 06:00:00 15.2 15 Sur 32 Sudeste 0 993.2 -1.9 87
2019-05-17 05:00:00 15.8 15 Sur 32 Sur 0 994.1 -2.4 85
2019-05-17 04:00:00 15.6 16 Sudeste 30 Sudeste 0 994.3 -3.3 88
2019-05-17 03:00:00 15.7 16 Sudeste 30 Sur 0 995.1 -2.7 86
2019-05-17 02:00:00 16.1 19 Sur 30 Sur 0 996.5 -1.5 83
2019-05-17 01:00:00 16.2 17 Sur 28 Sur 0 997.6 -0.8 81
2019-05-17 00:00:00 16.2 20 Sur 30 Sur 0 997.8 -0.9 81
2019-05-16 23:00:00 16.1 18 Sur 28 Sur 0 998 -1.1 83
2019-05-16 22:00:00 16.1 14 Sur 18 Sur 0 998.4 -1.2 80
2019-05-16 21:00:00 16 9 Sur 22 Sur 0 998.7 -1.2 79
2019-05-16 20:00:00 17.3 13 Sur 21 Sur 0 999.1 -1.5 73
2019-05-16 19:00:00 17.8 14 Sur 24 Sudoeste 0 999.6 -1.6 69
2019-05-16 18:00:00 17.8 17 Sur 24 Sudoeste 0 999.9 -2.3 69
2019-05-16 17:00:00 17.4 17 Sur 26 Sudoeste 0 1000.6 -2.3 72
2019-05-16 16:00:00 16.4 17 Sur 24 Sur 0 1001.2 -2 81
2019-05-16 15:00:00 16.8 10 Sur 21 Sur 0 1002.2 -1.5 79
2019-05-16 14:00:00 17.1 17 Sur 30 Sur 0 1002.9 -1.3 74
2019-05-16 13:00:00 18.2 17 Sur 28 Sur 0 1003.2 -1.4 69
2019-05-16 12:00:00 18 9 Sur 18 Sudeste 0 1003.7 -1.2 66
2019-05-16 11:00:00 16.9 8 Sur 15 Sur 0 1004.2 -0.7 66
2019-05-16 10:00:00 16 5 Sur 11 Sur 0 1004.6 -0.3 62
2019-05-16 09:00:00 14.9 4 Este 8 Este 0 1004.9 0.1 59
2019-05-16 08:00:00 12.9 4 Noroeste 5 Noroeste 0 1004.9 -0.1 65
2019-05-16 07:00:00 11.3 5 Noroeste 15 Norte 0 1004.9 -0.7 66
2019-05-16 06:00:00 11.7 8 Norte 13 Nordeste 0 1004.8 -1 63
2019-05-16 05:00:00 10.7 7 Nordeste 11 Norte 0 1005 -1.4 77
2019-05-16 04:00:00 9.2 8 Nordeste 11 Nordeste 0 1005.6 -1.2 83
2019-05-16 03:00:00 9.7 9 Norte 13 Norte 0 1005.8 -1.2 82
2019-05-16 02:00:00 10.8 10 Noroeste 13 Noroeste 0 1006.4 -0.8 82
2019-05-16 01:00:00 11.6 10 Noroeste 11 Noroeste 0 1006.8 -0.1 81
2019-05-16 00:00:00 12.1 9 Norte -- -- 0 1007 0.9 78
2019-05-15 23:00:00 13 5 Nordeste 9 Norte 0 1007.2 1.8 76
2019-05-15 22:00:00 13.4 5 Este 15 Este 0 1006.9 1.9 74
2019-05-15 21:00:00 14.1 6 Este 22 Sudeste 0 1006.1 1.2 69
2019-05-15 20:00:00 15.7 16 Este 30 Sudeste 0 1005.4 1 63
2019-05-15 19:00:00 16.7 20 Este 33 Este 0 1005 0.1 59
2019-05-15 18:00:00 17.4 23 Sudeste 39 Este 0 1004.9 0.2 64
2019-05-15 17:00:00 17.1 28 Este 42 Este 0 1004.4 -0.1 59
2019-05-15 16:00:00 17.9 27 Este 42 Sudeste 0 1004.9 0.6 58
2019-05-15 15:00:00 18.2 27 Este 39 Sudeste 0 1004.7 0.9 55
2019-05-15 14:00:00 19.7 23 Este 37 Sudeste 0 1004.5 0.9 47
2019-05-15 13:00:00 19.8 28 Este 42 Sudeste 0 1004.3 0.7 48
2019-05-15 12:00:00 19.6 27 Este 39 Este 0 1003.8 0.1 56
2019-05-15 11:00:00 19.3 19 Este 32 Sudeste 0 1003.6 0.1 64
2019-05-15 10:00:00 18 5 Este 15 Este 0 1003.6 0.2 71
2019-05-15 09:00:00 15.9 10 Norte 17 Nordeste 0 1003.7 0.4 80
2019-05-15 08:00:00 15.1 10 Nordeste 13 Nordeste 0 1003.5 -0.2 83
2019-05-15 07:00:00 14.1 6 Nordeste 13 Nordeste 0 1003.4 -1 89
2019-05-15 06:00:00 14.5 8 Nordeste 11 Nordeste 0 1003.3 -1.6 92
2019-05-15 05:00:00 14.9 6 Este 11 Nordeste 0 1003.7 -1.7 93
2019-05-15 04:00:00 13.5 8 Norte 13 Norte 0 1004.4 -1.5 91
2019-05-15 03:00:00 13.3 9 Norte 13 Norte 0 1004.9 -1.3 92
2019-05-15 02:00:00 13.6 6 Norte 13 Norte 0 1005.4 -1.1 91
2019-05-15 01:00:00 13.8 5 Norte 11 Norte 0 1005.9 -0.5 89
2019-05-15 00:00:00 14.4 5 Norte 8 Norte 0 1006.2 -0.3 89
2019-05-14 23:00:00 15.2 3 Nordeste 4 Nordeste 0 1006.5 0.2 89
2019-05-14 22:00:00 15.4 5 Sur 9 Sur 0 1006.4 0.1 90
2019-05-14 21:00:00 16.7 7 Sur 17 Sur 0 1006.5 0.1 82
2019-05-14 20:00:00 18.2 13 Sur 26 Sur 0 1006.3 -0.6 73
2019-05-14 19:00:00 19.5 14 Sur 28 Sur 0 1006.3 -1.1 60
2019-05-14 18:00:00 20.2 19 Sur 32 Sur 0 1006.4 -1.7 56
2019-05-14 17:00:00 20.5 22 Sur 32 Sur 0 1006.9 -1.7 61
2019-05-14 16:00:00 20.8 22 Sur 33 Sudoeste 0 1007.4 -1.9 58
2019-05-14 15:00:00 21.5 22 Sur 35 Sur 0 1008.1 -1.5 51
2019-05-14 14:00:00 22.1 21 Sur 39 Sur 0 1008.6 -1.3 41
2019-05-14 13:00:00 22.6 19 Sur 28 Sur 0 1009.3 -1.2 36
2019-05-14 12:00:00 21.2 15 Sudeste 28 Sur 0 1009.6 -1.1 49
2019-05-14 11:00:00 21 18 Sur 22 Sur 0 1009.9 -1.1 55
2019-05-14 10:00:00 19.8 5 Sudeste 13 Nordeste 0 1010.5 -0.4 39
2019-05-14 09:00:00 16.6 10 Nordeste 13 Nordeste 0 1010.7 0 54
2019-05-14 08:00:00 12.8 6 Nordeste 9 Nordeste 0 1011 0 65
2019-05-14 07:00:00 9.7 8 Norte 13 Nordeste 0 1010.9 -0.3 79
2019-05-14 06:00:00 10 9 Norte 15 Norte 0 1010.7 -0.8 80
2019-05-14 05:00:00 11.1 12 Norte 15 Norte 0 1011 -0.9 80
2019-05-14 04:00:00 11.8 12 Norte 17 Norte 0 1011.2 -1.3 80
2019-05-14 03:00:00 12.4 12 Norte 15 Norte 0 1011.5 -1.2 84
2019-05-14 02:00:00 13.8 5 Oeste 15 Oeste 0 1011.9 -0.8 81
2019-05-14 01:00:00 13.7 10 Oeste 13 Oeste 0 1012.5 -0.2 81
2019-05-14 00:00:00 13.7 9 Oeste 11 Oeste 0 1012.7 0.4 82
2019-05-13 23:00:00 13.8 9 Oeste 11 Oeste 0 1012.7 0.7 80
2019-05-13 22:00:00 14.2 8 Sudoeste 17 Sur 0 1012.7 0.8 77
2019-05-13 21:00:00 15.5 11 Sudoeste 21 Sur 0 1012.3 0.6 70
2019-05-13 20:00:00 17.4 13 Sur 22 Sur 0 1012 0.5 67
2019-05-13 19:00:00 18.4 13 Sur 24 Sur 0 1011.9 0.8 61
2019-05-13 18:00:00 19.4 16 Sur 24 Sudeste 0 1011.7 1.1 57
2019-05-13 17:00:00 19.5 15 Sudeste 28 Sudeste 0 1011.5 0.8 53
2019-05-13 16:00:00 20.1 21 Sudeste 30 Sudeste 0 1011.1 0.1 58
2019-05-13 15:00:00 20.9 19 Sudeste 30 Sudeste 0 1010.6 -0.4 54
2019-05-13 14:00:00 21.3 18 Sudeste 28 Sudeste 0 1010.7 -0.2 42
2019-05-13 13:00:00 20.6 19 Este 28 Este 0 1011 0.2 44
2019-05-13 12:00:00 20.7 17 Sudeste 28 Sudeste 0 1011 0.1 41
2019-05-13 11:00:00 20.4 10 Sudeste 24 Sudeste 0 1010.9 0 38
2019-05-13 10:00:00 18.3 5 Noroeste 11 Norte 0 1010.8 0.1 44
2019-05-13 09:00:00 15.9 9 Este 15 Este 0 1010.9 -0.1 58
2019-05-13 08:00:00 11.8 6 Nordeste 11 Norte 0 1010.9 -0.6 81
2019-05-13 07:00:00 8.6 5 Norte 13 Norte 0 1010.7 -1.1 89
2019-05-13 06:00:00 9.4 5 Nordeste 11 Nordeste 0 1011 -1 89
2019-05-13 05:00:00 10.2 5 Nordeste 11 Norte 0 1011.5 -1.2 90
2019-05-13 04:00:00 11.5 5 Oeste 9 Oeste 0 1011.8 -1.5 88
2019-05-13 03:00:00 11.8 8 Oeste 11 Oeste 0 1012 -1.5 87
2019-05-13 02:00:00 11.9 3 Nordeste 13 Noroeste 0 1012.7 -0.7 88
2019-05-13 01:00:00 12.7 9 Noroeste 11 Noroeste 0 1013.3 0.8 85
2019-05-13 00:00:00 -- 9 Norte 11 Norte 0 1013.5 2 --
2019-05-12 23:00:00 14.5 8 Nordeste 13 Nordeste 0 1013.4 2.7 81
2019-05-12 22:00:00 14.5 11 Este 18 Este 0 1012.5 2.6 84
2019-05-12 21:00:00 16.2 13 Este 24 Este 0 1011.5 2.2 68
2019-05-12 20:00:00 17.7 17 Este 28 Este 0 1010.7 1.2 62
2019-05-12 19:00:00 19.7 21 Este 32 Este 0 1009.9 -0.5 55
2019-05-12 18:00:00 23 19 Sur 41 Sur 0 1009.3 -2.2 40
2019-05-12 17:00:00 27.1 28 Sudoeste 46 Sudoeste 0 1009.5 -3 24
2019-05-12 16:00:00 27.6 27 Oeste 41 Oeste 0 1010.4 -3 19
2019-05-12 15:00:00 26.2 23 Oeste 39 Oeste 0 1011.5 -2.3 23
2019-05-12 14:00:00 24.6 21 Oeste 35 Oeste 0 1012.5 -2 27
2019-05-12 13:00:00 23.5 15 Oeste 35 Oeste 0 1013.4 -1.5 30
2019-05-12 12:00:00 21.4 26 Oeste 46 Noroeste 0 1013.8 -1.4 34
2019-05-12 11:00:00 19.4 28 Oeste 39 Oeste 0 1014.5 -0.6 39
2019-05-12 10:00:00 17.8 23 Oeste 33 Oeste 0 1014.9 0.2 43
2019-05-12 09:00:00 15.6 5 Noroeste 24 Noroeste 0 1015.2 0.8 49
2019-05-12 08:00:00 13.5 9 Noroeste 18 Noroeste 0 1015.1 1 56
2019-05-12 07:00:00 11.6 14 Noroeste 24 Noroeste 0 1014.7 0.7 61
2019-05-12 06:00:00 12.2 12 Norte 33 Noroeste 0 1014.4 0.1 56
2019-05-12 05:00:00 13.5 22 Noroeste 35 Noroeste 0 1014.1 -0.3 52
2019-05-12 04:00:00 13 18 Noroeste 26 Noroeste 0 1014 -0.4 56
2019-05-12 03:00:00 11.7 8 Noroeste 13 Noroeste 0 1014.3 0.1 93
2019-05-12 02:00:00 12.7 9 Norte 13 Norte 0 1014.4 0.5 92
2019-05-12 01:00:00 13.5 10 Norte 15 Norte 0 1014.4 1.3 91
2019-05-12 00:00:00 14.3 8 Norte 13 Nordeste 0 1014.2 2.4 90
2019-05-11 23:00:00 14.2 8 Este 15 Este 0 1013.9 3 91
2019-05-11 22:00:00 15.1 9 Este 21 Este 0 1013.1 2.7 89
2019-05-11 21:00:00 16.4 10 Este 26 Este 0 1011.8 1.7 85
2019-05-11 20:00:00 17.6 15 Este 26 Este 0 1010.9 0.8 80
2019-05-11 19:00:00 19.4 15 Este 26 Sudeste 0 1010.4 0.1 74
2019-05-11 18:00:00 20.7 19 Sudeste 30 Sudeste 0 1010.1 -0.4 67
2019-05-11 17:00:00 21.3 18 Sudeste 30 Sudeste 0 1010.1 -0.5 64
2019-05-11 16:00:00 21.8 20 Sur 30 Sudeste 0 1010.3 0 61
2019-05-11 15:00:00 22.3 19 Sudeste 30 Sudeste 0 1010.5 0.3 58
2019-05-11 14:00:00 21.4 19 Sudeste 30 Sudeste 0 1010.6 0.5 60
2019-05-11 13:00:00 21 19 Sudeste 30 Sudeste 0 1010.3 0.5 58
2019-05-11 12:00:00 22.8 17 Sudeste 26 Sudeste 0 1010.2 0.7 53
2019-05-11 11:00:00 22.6 13 Sur 24 Sur 0 1010.1 1.2 52
2019-05-11 10:00:00 21.4 6 Sur 18 Sudoeste 0 1009.8 1.4 57
2019-05-11 09:00:00 19.7 12 Sudoeste 17 Sudoeste 0 1009.5 1.8 68
2019-05-11 08:00:00 17.4 7 Oeste 11 Oeste 0 1008.9 1.9 87
2019-05-11 07:00:00 15.2 6 Oeste 13 Noroeste 0 1008.4 1.6 92
2019-05-11 06:00:00 15.7 12 Noroeste 17 Oeste 0 1007.7 1.3 94
2019-05-11 05:00:00 15.1 9 Norte 11 Norte 0 1007 0.9 96
2019-05-11 04:00:00 15.6 5 Este 15 Este 0 1006.8 0.5 94
2019-05-11 03:00:00 17 6 Este 11 Este 0 1006.4 0.1 95
2019-05-11 02:00:00 17.1 4 Este 8 Norte 0 1006.1 -0.2 95
2019-05-11 01:00:00 17.1 3 Nordeste 11 Sudeste 0 1006.3 1 91
2019-05-11 00:00:00 17.5 9 Sur 13 Sudoeste 0 1006.3 1.8 96
2019-05-10 23:00:00 18.5 5 Sudoeste 9 Sudoeste 0.1 1006.3 2 91
2019-05-10 22:00:00 19.3 4 Norte 9 Norte 0.1 1005.3 1.5 83
2019-05-10 21:00:00 19.3 7 Nordeste 9 Nordeste 0 1004.5 0.4 77
2019-05-10 20:00:00 19.9 6 Este 17 Sur 0 1004.3 0.3 72
2019-05-10 19:00:00 21.2 9 Sudeste 13 Sudeste 0 1003.8 -0.5 66
2019-05-10 18:00:00 21.5 6 Sur 11 Sudeste 0 1004.1 0.1 62
2019-05-10 17:00:00 21.2 4 Sudeste 18 Sudoeste 0 1004 0.2 64
2019-05-10 16:00:00 20.9 11 Sur 24 Sur 0 1004.3 0.7 65
2019-05-10 15:00:00 22.7 13 Sudeste 26 Sudeste 0 1004 0.3 57
2019-05-10 14:00:00 21.2 17 Sudeste 28 Sudeste 0 1003.8 0.2 66
2019-05-10 13:00:00 25.5 16 Sudeste 24 Sur 0 1003.6 -0.1 43
2019-05-10 12:00:00 25.5 13 Sur 24 Sudoeste 0 1003.7 0.4 41
2019-05-10 11:00:00 23.9 9 Sur 17 Sudeste 0 1003.6 0.7 43
2019-05-10 10:00:00 21.2 5 Sudoeste 13 Sur 0 1003.7 1.1 49
2019-05-10 09:00:00 19.1 6 Sur 13 Sur 0 1003.3 1.1 58
2019-05-10 08:00:00 15.6 4 Sur 15 Noroeste 0 1002.9 0.9 73
2019-05-10 07:00:00 13 6 Noroeste 13 Norte 0 1002.6 0.8 79
2019-05-10 06:00:00 13 5 Norte 9 Norte 0 1002.2 0.4 76
2019-05-10 05:00:00 12.4 4 Norte 8 Noroeste 0 1002 0 79
2019-05-10 04:00:00 12.7 0 Calma 5 Norte 0 1001.8 -0.6 79
2019-05-10 03:00:00 14.3 4 Norte 13 Norte 0 1001.8 -0.6 71
2019-05-10 02:00:00 15.7 12 Norte 17 Norte 0 1002 -1.1 67
2019-05-10 01:00:00 15.8 10 Nordeste 18 Nordeste 0 1002.4 -0.6 67
2019-05-10 00:00:00 16.4 9 Norte 13 Norte 0 1002.4 0.1 69
2019-05-09 23:00:00 15.6 7 Norte 13 Sudoeste 0 1003.1 0.8 76
2019-05-09 22:00:00 15.5 11 Sudoeste 17 Sudoeste 0 1003 0.2 75
2019-05-09 21:00:00 17.3 3 Sur 13 Sudoeste 0 1002.3 -0.9 61
2019-05-09 20:00:00 18.8 8 Sur 24 Sudoeste 0 1002.3 -0.6 54
2019-05-09 19:00:00 19.1 13 Sur 30 Sur 0 1002.8 -0.4 49
2019-05-09 18:00:00 20.8 22 Sudoeste 35 Sudoeste 0 1003.2 0.5 43
2019-05-09 17:00:00 20.8 26 Sudoeste 42 Sur 0 1002.9 0.1 46
2019-05-09 16:00:00 22 26 Sur 41 Sur 0 1003.2 0.4 37
2019-05-09 15:00:00 22.9 19 Este 32 Este 0 1002.7 0.2 41
2019-05-09 14:00:00 22.4 23 Sudeste 33 Sudeste 0 1002.8 0.6 42
2019-05-09 13:00:00 23.4 18 Sudeste 32 Oeste 0 1002.8 0.9 33
2019-05-09 12:00:00 23.6 12 Oeste 35 Oeste 0 1002.5 0 27
2019-05-09 11:00:00 21.7 25 Oeste 39 Oeste 0 1002.2 0 31
2019-05-09 10:00:00 19.8 31 Oeste 61 Oeste 0 1001.9 0.5 35
2019-05-09 09:00:00 18.6 22 Oeste 37 Oeste 0 1002.5 1.4 37
2019-05-09 08:00:00 17 13 Sudoeste 28 Sudoeste 0 1002.2 1.1 39
2019-05-09 07:00:00 16.2 16 Noroeste 33 Noroeste 0 1001.4 0.6 40
2019-05-09 06:00:00 16.2 17 Noroeste 28 Oeste 0 1001.1 1 39
2019-05-09 05:00:00 17.9 19 Oeste 37 Oeste 0 1001.1 1.5 35
2019-05-09 04:00:00 18.9 22 Oeste 37 Oeste 0 1000.8 1.7 33
2019-05-09 03:00:00 20.6 27 Oeste 39 Noroeste 0 1000.1 1.7 29
2019-05-09 02:00:00 21.3 26 Oeste 41 Oeste 0 999.6 1.9 29
2019-05-09 01:00:00 21.9 18 Oeste 30 Oeste 0 999.1 1.8 44
2019-05-09 00:00:00 22 14 Noroeste 39 Oeste 0 998.4 1.8 44
2019-05-08 23:00:00 23.2 25 Oeste 41 Oeste 0 997.7 1.6 40
2019-05-08 22:00:00 16.2 7 Sur 15 Este 0 997.3 0.7 90
2019-05-08 21:00:00 17.8 10 Sur 17 Sur 0 996.6 -0.5 87
2019-05-08 20:00:00 19.4 7 Sur 15 Sur 0 996.1 -1.8 81
2019-05-08 19:00:00 20.5 7 Sur 13 Sudoeste 0 996.6 -2.1 74
2019-05-08 18:00:00 20.5 8 Sur 15 Sur 0 997.1 -2.2 74
2019-05-08 17:00:00 20.4 11 Sur 18 Sur 0 997.9 -1.9 74
2019-05-08 16:00:00 19.5 13 Sur 21 Sudoeste 0 998.7 -2.1 79
2019-05-08 15:00:00 20.1 14 Sur 24 Sur 0 999.3 -1.7 75
2019-05-08 14:00:00 19.9 12 Sur 21 Sur 0 999.8 -1.5 76
2019-05-08 13:00:00 18.6 14 Sudoeste 26 Sur 0 1000.8 -1 80
2019-05-08 12:00:00 18.6 8 Sur 15 Sur 0 1001 -1 82
2019-05-08 11:00:00 16.8 12 Sur 17 Sur 0 1001.3 -0.9 89
2019-05-08 10:00:00 17.5 9 Sur 13 Sur 0 1001.8 -0.3 82
2019-05-08 09:00:00 16.5 5 Sur 9 Sur 0 1002 -0.5 87
2019-05-08 08:00:00 15.6 3 Sudoeste 5 Sudoeste 0 1002.2 -0.7 93
2019-05-08 07:00:00 15.3 4 Sur 5 Sur 0 1002.1 -1.5 96
2019-05-08 06:00:00 15.3 4 Sur 5 Sur 0 1002.5 -2 95
2019-05-08 05:00:00 15.2 4 Sudeste 5 Este 0 1002.9 -2.5 95
2019-05-08 04:00:00 15.2 3 Este -- -- 0 1003.6 -2.1 95
2019-05-08 03:00:00 15.3 4 Sur 9 Oeste 0 1004.5 -1.8 95
2019-05-08 02:00:00 15.3 5 Oeste 9 Sudoeste 0 1005.4 -1.3 95
2019-05-08 01:00:00 15.2 5 Sudoeste 9 Sudoeste 0 1005.7 -1.1 95
2019-05-08 00:00:00 15.2 5 Sudoeste 11 Sudoeste 0 1006.3 -0.5 94
2019-05-07 23:00:00 15.4 6 Sur 8 Sur 0 1006.7 0 93
2019-05-07 22:00:00 15.5 6 Sur 11 Sur 0 1006.8 0.1 92
2019-05-07 21:00:00 15.5 7 Sur 13 Sur 0 1006.8 -0.1 92
2019-05-07 20:00:00 16.2 9 Sur 15 Sur 0 1006.7 -0.7 87
2019-05-07 19:00:00 16.5 12 Sur 17 Sur 0 1006.7 -1.4 85
2019-05-07 18:00:00 17.1 12 Sur 18 Sur 0 1006.9 -1.6 81
2019-05-07 17:00:00 17.6 12 Sudeste 17 Sudeste 0 1007.4 -1.5 80
2019-05-07 16:00:00 16.7 10 Sur 18 Sur 0 1008.1 -1.2 84
2019-05-07 15:00:00 16.3 10 Sur 18 Sur 0 1008.5 -1 88
2019-05-07 14:00:00 17.2 13 Sur 18 Sur 0 1008.9 -0.7 83
2019-05-07 13:00:00 16.5 8 Sudeste 17 Sudeste 0 1009.3 -0.5 83
2019-05-07 12:00:00 16.2 6 Sur 15 Sur 0 1009.5 -0.1 82
2019-05-07 11:00:00 15.8 3 Nordeste 8 Este 0 1009.6 0.4 82
2019-05-07 10:00:00 14.2 5 Nordeste 9 Este 0 1009.8 0.9 84
2019-05-07 09:00:00 13.9 5 Nordeste 9 Nordeste 0 1009.6 0.5 77
2019-05-07 08:00:00 13.2 5 Nordeste 13 Norte 0 1009.2 -0.2 77
2019-05-07 07:00:00 12.4 10 Norte 17 Nordeste 0 1008.9 -0.7 77
2019-05-07 06:00:00 12.3 8 Nordeste 17 Nordeste 0 1009.1 -0.7 77
2019-05-07 05:00:00 12 14 Norte 18 Norte 0 1009.4 -0.8 75
2019-05-07 04:00:00 12.4 10 Norte 13 Norte 0 1009.6 -1 70
2019-05-07 03:00:00 12.4 11 Norte 17 Norte 0 1009.8 -0.8 65
2019-05-07 02:00:00 11.7 12 Norte 21 Norte 0 1010.2 -0.6 62
2019-05-07 01:00:00 10.4 13 Norte 15 Norte 0 1010.6 0.3 72
2019-05-07 00:00:00 11.5 9 Norte 15 Noroeste 0 1010.6 1.1 66
2019-05-06 23:00:00 12.5 8 Norte 9 Norte 0 1010.8 2 61
2019-05-06 22:00:00 13 5 Sudoeste -- -- 0 1010.3 1.3 60
2019-05-06 21:00:00 14 8 Sudoeste 22 Sur 0 1009.5 0.3 55
2019-05-06 20:00:00 16 15 Sudoeste 26 Sudoeste 0 1008.8 -0.5 43
2019-05-06 19:00:00 17.3 17 Sudoeste 28 Sur 0 1009 -0.2 47
2019-05-06 18:00:00 17.7 16 Sudoeste 24 Sur 0 1009.2 -0.3 50
2019-05-06 17:00:00 18.1 17 Sur 28 Sur 0 1009.3 -0.3 56
2019-05-06 16:00:00 18.6 14 Sudeste 32 Sudeste 0 1009.2 -0.7 54
2019-05-06 15:00:00 18.1 19 Sudeste 28 Sudeste 0 1009.5 -0.6 59
2019-05-06 14:00:00 18.2 17 Sudeste 30 Sudeste 0 1009.6 -0.6 56
2019-05-06 13:00:00 18.6 15 Sudeste 33 Este 0 1009.9 -0.3 52
2019-05-06 12:00:00 17.5 10 Sudeste 21 Este 0 1010.1 -0.1 57
2019-05-06 11:00:00 16.6 7 Este 22 Este 0 1010.2 0.3 54
2019-05-06 10:00:00 16 10 Este 22 Nordeste 0 1010.2 0.8 55
2019-05-06 09:00:00 13.6 12 Norte 17 Norte 0 1010.2 1.1 58
2019-05-06 08:00:00 9.3 3 Norte 13 Noroeste 0 1009.9 1 72
2019-05-06 07:00:00 8.3 13 Noroeste 18 Noroeste 0 1009.4 1 65
2019-05-06 06:00:00 6.6 15 Noroeste 18 Noroeste 0 1009.1 0.8 72
2019-05-06 05:00:00 6.3 10 Norte 15 Nordeste 0 1008.9 0.6 77
2019-05-06 04:00:00 7.2 3 Noroeste 8 Norte 0 1008.4 0.3 74
2019-05-06 03:00:00 9.1 0 Calma 15 Norte 0 1008.3 0.6 70
2019-05-06 02:00:00 9.7 12 Noroeste 18 Norte 0 1008.3 1.3 72
2019-05-06 01:00:00 10.7 10 Norte 13 Norte 0 1008.1 2.4 71
2019-05-06 00:00:00 12.4 6 Norte 21 Nordeste 0 1007.7 2.6 65
2019-05-05 23:00:00 14.6 11 Noroeste 22 Norte 0 1007 2.2 44
2019-05-05 22:00:00 14.6 18 Sudoeste 26 Sudoeste 0 1005.7 1 50
2019-05-05 21:00:00 15 15 Sudoeste 32 Sudoeste 0 1005.1 0.6 59
2019-05-05 20:00:00 16.1 23 Sudoeste 42 Sudoeste 0 1004.8 0.2 59
2019-05-05 19:00:00 20.2 25 Sudoeste 39 Sudoeste 0 1004.7 -0.4 37
2019-05-05 18:00:00 21.9 19 Oeste 42 Oeste 0 1004.5 -0.9 19
2019-05-05 17:00:00 21.8 27 Oeste 45 Oeste 0 1004.6 -0.9 20
2019-05-05 16:00:00 21.6 27 Oeste 50 Oeste 0 1005.1 -0.6 21
2019-05-05 15:00:00 21.2 25 Oeste 48 Oeste 0 1005.4 -0.5 22
2019-05-05 14:00:00 19.9 32 Oeste 50 Oeste 0 1005.5 0 25
2019-05-05 13:00:00 19.1 32 Oeste 45 Oeste 0 1005.7 0 26
2019-05-05 12:00:00 17.6 29 Oeste 42 Oeste 0 1005.9 0.2 32
2019-05-05 11:00:00 16.1 29 Oeste 41 Oeste 0 1005.5 0.4 38
2019-05-05 10:00:00 13.9 28 Oeste 37 Oeste 0 1005.7 1.3 43
2019-05-05 09:00:00 12.7 27 Oeste 35 Oeste 0 1005.7 1.8 46
2019-05-05 08:00:00 11.7 19 Oeste 33 Oeste 0 1005.1 1.5 49
2019-05-05 07:00:00 10.2 13 Oeste 26 Oeste 0 1004.4 1.4 58
2019-05-05 06:00:00 11.2 15 Oeste 39 Noroeste 0 1003.9 2.2 56
2019-05-05 05:00:00 11.8 20 Noroeste 32 Noroeste 0 1003.6 2.2 55
2019-05-05 04:00:00 12.7 11 Este 32 Noroeste 0 1003 2.5 51
2019-05-05 03:00:00 14 28 Noroeste 54 Oeste 0 1001.7 1.1 50
2019-05-05 02:00:00 14.5 23 Norte 65 Noroeste 0 1001.4 0.5 51
2019-05-05 01:00:00 15 15 Norte 35 Norte 0 1000.5 -0.2 48
2019-05-05 00:00:00 15.9 8 Sudeste 41 Oeste 0 1000.6 0.6 44
2019-05-04 23:00:00 16.7 18 Oeste 46 Oeste 0 1000.9 1.2 40
2019-05-04 22:00:00 18.2 30 Oeste 50 Oeste 0 1000.7 0.7 36
2019-05-04 21:00:00 18.2 21 Oeste 39 Sur 0 1000 -0.1 39
2019-05-04 20:00:00 17.5 24 Sudoeste 46 Sur 0 999.7 -1 56
2019-05-04 19:00:00 18 32 Sur 48 Sur 0 1000 -1 59
2019-05-04 18:00:00 18.7 33 Sur 48 Sur 0 1000.1 -1.2 56
2019-05-04 17:00:00 19.4 32 Sur 48 Sur 0 1000.7 -0.9 52
2019-05-04 16:00:00 22.3 19 Oeste 41 Oeste 0 1001 -1.4 34
2019-05-04 15:00:00 22 24 Oeste 41 Oeste 0 1001.3 -1.1 32
2019-05-04 14:00:00 21.2 27 Oeste 46 Oeste 0 1001.6 -1 33
2019-05-04 13:00:00 19.6 32 Oeste 50 Noroeste 0 1002.4 -0.3 41
2019-05-04 12:00:00 17.6 35 Oeste 54 Oeste 0 1002.4 -0.2 49
2019-05-04 11:00:00 15.6 28 Noroeste 55 Oeste 0 1002.6 0 55
2019-05-04 10:00:00 14 22 Noroeste 52 Oeste 0 1002.7 0.3 60
2019-05-04 09:00:00 12.5 31 Noroeste 50 Oeste 0 1002.6 0.4 65
2019-05-04 08:00:00 11 38 Oeste 58 Oeste 0 1002.6 0 70
2019-05-04 07:00:00 9.6 15 Oeste 26 Noroeste 0 1002.4 -0.4 76
2019-05-04 06:00:00 9 14 Oeste 24 Oeste 0 1002.2 -1.1 80
2019-05-04 05:00:00 7.2 10 Oeste 18 Oeste 0 1002.6 -1.3 93
2019-05-04 04:00:00 6.9 11 Norte 13 Norte 0 1002.8 -1 97
2019-05-04 03:00:00 7.6 4 Sudoeste 11 Noroeste 0 1003.3 -0.6 93
2019-05-04 02:00:00 8.2 9 Noroeste 13 Noroeste 0 1003.9 0.1 96
2019-05-04 01:00:00 8.9 9 Norte 13 Noroeste 0 1003.8 0.5 94
2019-05-04 00:00:00 10.2 4 Norte 13 Norte 0 1003.9 1.3 89
2019-05-03 23:00:00 11.1 5 Norte 9 Norte 0 1003.8 2 89
2019-05-03 22:00:00 11.8 6 Norte 17 Nordeste 0 1003.3 1.6 83
2019-05-03 21:00:00 12.7 9 Norte 24 Norte 0 1002.6 0.7 78
2019-05-03 20:00:00 13 8 Nordeste 21 Nordeste 0 1001.8 -0.4 83
2019-05-03 19:00:00 14.4 5 Sudeste 17 Nordeste 0 1001.7 -0.5 75
2019-05-03 18:00:00 14.3 12 Noroeste 21 Oeste 0 1001.9 -0.9 74
2019-05-03 17:00:00 13 12 Sudoeste 17 Sur 0.2 1002.2 -1.1 91
2019-05-03 16:00:00 13.9 7 Sudeste 9 Sudeste 0.2 1002.2 -1.5 81
2019-05-03 15:00:00 13.6 2 Noroeste 9 Sudoeste 0 1002.8 -1.1 79
2019-05-03 14:00:00 13 4 Este 13 Nordeste 0 1003.3 -0.6 83
2019-05-03 13:00:00 12.1 11 Nordeste 17 Norte 0.1 1003.7 -0.1 87
2019-05-03 12:00:00 12 13 Noroeste 21 Oeste 0 1003.9 0.3 80
2019-05-03 11:00:00 11.7 8 Nordeste 22 Norte 0 1003.9 0.9 90
2019-05-03 10:00:00 11.6 10 Noroeste 21 Oeste 0.8 1003.8 0.4 89
2019-05-03 09:00:00 11.7 12 Oeste 30 Oeste 0.6 1003.6 -0.1 80
2019-05-03 08:00:00 13.9 8 Noroeste 18 Noroeste 0 1003 -1.4 56
2019-05-03 07:00:00 13.8 11 Oeste 15 Noroeste 0 1003.4 -1.5 59
2019-05-03 06:00:00 13.8 9 Oeste 17 Oeste 0 1003.7 -2 62
2019-05-03 05:00:00 13.5 8 Sudoeste 13 Sudoeste 0 1004.4 -1.9 80
2019-05-03 04:00:00 14.5 3 Norte 5 Noroeste 0 1004.9 -1.8 80
2019-05-03 03:00:00 14.8 -- -- -- -- 0 1005.7 -1.3 79
2019-05-03 02:00:00 14.9 7 Nordeste 11 Nordeste 0 1006.3 -0.3 80
2019-05-03 01:00:00 14.8 6 Este 9 Nordeste 0 1006.7 0.5 84
2019-05-03 00:00:00 14.9 5 Este 11 Este 0 1007 1.2 85
2019-05-02 23:00:00 15.1 6 Este 15 Sudeste 0 1006.6 1 87
2019-05-02 22:00:00 14.9 10 Este 17 Este 0 1006.2 0.3 90
2019-05-02 21:00:00 15.3 9 Sudeste 17 Este 0 1005.8 -0.1 85
2019-05-02 20:00:00 17.1 11 Sudeste 18 Este 0 1005.6 -0.6 78
2019-05-02 19:00:00 17.2 13 Sudeste 21 Sudeste 0 1005.9 -0.6 74
2019-05-02 18:00:00 19.1 13 Sudeste 30 Sudeste 0 1005.9 -0.5 67
2019-05-02 17:00:00 18.9 19 Sudeste 28 Sudeste 0 1006.2 -0.3 65
2019-05-02 16:00:00 20.2 20 Sudeste 33 Sudeste 0 1006.5 -0.3 53
2019-05-02 15:00:00 21.7 17 Sudeste 30 Sur 0 1006.4 -0.7 49
2019-05-02 14:00:00 21.8 18 Sudeste 26 Sudeste 0 1006.5 -0.7 44
2019-05-02 13:00:00 21.3 12 Sur 24 Sur 0 1006.8 0.1 52
2019-05-02 12:00:00 19.7 9 Sudoeste 22 Oeste 0 1007.1 0.6 56
2019-05-02 11:00:00 18.1 9 Sudoeste 18 Sudoeste 0 1007.2 0.8 63
2019-05-02 10:00:00 15.9 6 Sudoeste 11 Sudoeste 0.1 1006.7 0.6 76
2019-05-02 09:00:00 13.3 6 Oeste 13 Oeste 0.6 1006.5 0.8 93
2019-05-02 08:00:00 13.1 7 Norte 9 Norte 0 1006.4 0.5 90
2019-05-02 07:00:00 12 2 Norte 11 Norte 0 1006.1 0.2 92
2019-05-02 06:00:00 12.1 9 Norte 11 Norte 0 1005.7 -1.1 92
2019-05-02 05:00:00 11.7 4 Norte 9 Norte 0 1005.9 -1.3 92
2019-05-02 04:00:00 12 7 Norte -- -- 0 1005.9 -1 92
2019-05-02 03:00:00 12.2 7 Norte 9 Norte 0 1006.8 0 91
2019-05-02 02:00:00 11.9 6 Norte 11 Noroeste 0 1007.2 0.6 92
2019-05-02 01:00:00 11.4 9 Norte 13 Noroeste 0 1006.9 0.5 92
2019-05-02 00:00:00 12.3 3 Noroeste -- -- 0 1006.8 0.9 91
2019-05-01 23:00:00 13.3 0 Calma 5 Oeste 0 1006.6 1.2 88
2019-05-01 22:00:00 13.9 6 Sudoeste 13 Sudoeste 0 1006.4 1.1 92
2019-05-01 21:00:00 15 9 Sudoeste 17 Sur 0 1005.9 0.7 87
2019-05-01 20:00:00 16.2 15 Sudoeste 21 Sudoeste 0 1005.4 -0.1 78
2019-05-01 19:00:00 17.2 13 Sur 26 Sur 0 1005.3 -0.6 71
2019-05-01 18:00:00 18.6 15 Sur 28 Sur 0 1005.2 -0.9 65
2019-05-01 17:00:00 19.4 16 Sudoeste 30 Sur 0 1005.5 -0.9 66
2019-05-01 16:00:00 20 16 Sur 30 Sur 0 1005.9 -0.9 62
2019-05-01 15:00:00 20 19 Sudoeste 30 Sur 0 1006.1 -1 63
2019-05-01 14:00:00 20.1 15 Sur 30 Sur 0 1006.4 -0.8 61
2019-05-01 13:00:00 19.5 17 Sur 28 Sur 0 1006.8 -0.2 61
2019-05-01 12:00:00 18.1 13 Sur 22 Sur 0 1007.1 0.2 68
2019-05-01 11:00:00 16.9 12 Sur 22 Sur 0 1007.2 0.6 77
2019-05-01 10:00:00 16.8 12 Sudoeste 18 Sudoeste 0 1007 0.8 77
2019-05-01 09:00:00 15.1 9 Sudoeste 15 Sudoeste 0 1006.9 0.9 90
2019-05-01 08:00:00 14.9 12 Sur 17 Sudoeste 0 1006.6 0.2 91
2019-05-01 07:00:00 14.7 9 Sur 17 Sudoeste 0 1006.2 -0.4 92
2019-05-01 06:00:00 14.9 11 Sur 15 Sur 0 1006 -1.1 93
2019-05-01 05:00:00 14.9 9 Sur 13 Sur 0 1006.4 -1.4 93
2019-05-01 04:00:00 14.9 7 Sur 9 Sur 0 1006.6 -1.4 93
2019-05-01 03:00:00 15 6 Sur 9 Sur 0 1007.1 -1 93
2019-05-01 02:00:00 15.1 5 Sur 8 Sur 0 1007.8 -0.4 92
2019-05-01 01:00:00 14.8 3 Sudoeste 9 Sur 0 1008 0.1 92
2019-05-01 00:00:00 14.9 9 Sur 13 Sur 0 1008.1 0.8 92
2019-04-30 23:00:00 14.9 7 Sur 11 Sur 0 1008.2 1.3 94
2019-04-30 22:00:00 14.2 6 Sudoeste 15 Sudoeste 0 1007.9 0.8 94
2019-04-30 21:00:00 14.9 12 Sur 24 Sur 0 1007.3 0 92
2019-04-30 20:00:00 16.1 15 Sur 26 Sur 0 1006.9 -0.7 85
2019-04-30 19:00:00 16.7 17 Sur 30 Sur 0 1007.1 -0.8 81
2019-04-30 18:00:00 18.2 21 Sudoeste 30 Sudoeste 0 1007.3 -0.8 71
2019-04-30 17:00:00 18.7 19 Sur 33 Sudoeste 0 1007.6 -0.8 71
2019-04-30 16:00:00 18.8 18 Sur 32 Sur 0 1007.9 -1.1 68
2019-04-30 15:00:00 18.9 18 Sur 30 Sur 0 1008.1 -1.1 68
2019-04-30 14:00:00 19.5 14 Sur 26 Sur 0 1008.4 -0.5 66
2019-04-30 13:00:00 18.4 15 Sur 24 Sur 0 1009 0.2 73
2019-04-30 12:00:00 16.6 14 Sur 22 Sur 0 1009.2 0.6 79
2019-04-30 11:00:00 17.5 13 Sur 21 Sudeste 0 1008.9 0.7 73
2019-04-30 10:00:00 16.2 4 Sudeste 15 Sur 0 1008.8 0.6 78
2019-04-30 09:00:00 15 6 Sudoeste 9 Sudoeste 0 1008.6 0.7 86
2019-04-30 08:00:00 14 7 Sur 11 Sur 0.1 1008.2 0.1 94
2019-04-30 07:00:00 14.3 4 Sur 13 Sur 0 1008.2 -0.3 94
2019-04-30 06:00:00 14 8 Sur 17 Sur 0 1007.9 -1 96
2019-04-30 05:00:00 13.5 4 Sur 11 Sudoeste 0 1008.1 -1.2 97
2019-04-30 04:00:00 13.4 4 Sudeste 8 Sur 0 1008.5 -0.8 96
2019-04-30 03:00:00 13.9 3 Sudeste 8 Noroeste 0 1008.9 -0.6 94
2019-04-30 02:00:00 13.8 2 Nordeste 11 Sur 0 1009.3 -0.5 96
2019-04-30 01:00:00 13.5 6 Sudeste 8 Sudeste 0 1009.3 -0.1 96
2019-04-30 00:00:00 13.6 0 Calma 11 Oeste 0 1009.5 0.6 97
2019-04-29 23:00:00 13.8 3 Sudoeste -- -- 0 1009.8 1.1 95
2019-04-29 22:00:00 13.9 4 Sudoeste 11 Sudoeste 0 1009.4 0.6 94
2019-04-29 21:00:00 14.7 8 Sudoeste 22 Sur 0 1008.9 0.1 90
2019-04-29 20:00:00 16 14 Sudoeste 24 Sur 0 1008.7 -0.3 82
2019-04-29 19:00:00 17.7 15 Sur 26 Sur 0 1008.8 -0.7 67
2019-04-29 18:00:00 18.7 15 Sudoeste 26 Sudoeste 0 1008.8 -1 62
2019-04-29 17:00:00 17.6 14 Sur 30 Sur 0 1009 -1.3 66
2019-04-29 16:00:00 17.2 14 Sur 22 Sudeste 0 1009.5 -1.4 73
2019-04-29 15:00:00 16.7 13 Sudeste 24 Sudeste 0 1009.8 -1.3 75
2019-04-29 14:00:00 18.4 14 Sudeste 24 Sudeste 0 1010.3 -0.9 67
2019-04-29 13:00:00 16.9 15 Sudeste 22 Sur 0 1010.9 -0.7 72
2019-04-29 12:00:00 16.7 9 Sudeste 21 Sudeste 0 1011.1 -0.7 67
2019-04-29 11:00:00 16.1 12 Sudeste 18 Sudeste 0 1011.2 -0.5 72
2019-04-29 10:00:00 16.2 6 Este 11 Este 0 1011.6 0.4 73
2019-04-29 09:00:00 14.8 6 Nordeste 9 Nordeste 0 1011.8 0.6 83
2019-04-29 08:00:00 13.3 6 Nordeste 9 Este 0 1011.7 0.3 92
2019-04-29 07:00:00 13.4 4 Este 9 Este 0 1011.2 -0.4 91
2019-04-29 06:00:00 13.5 6 Este 13 Este 0 1011.2 -0.8 90
2019-04-29 05:00:00 13.6 9 Este 13 Este 0 1011.4 -1 89
2019-04-29 04:00:00 13.6 9 Este 17 Sudeste 0 1011.6 -1 89
2019-04-29 03:00:00 13.6 12 Sudeste 18 Sudeste 0 1012 -0.5 88
2019-04-29 02:00:00 13.6 8 Sudeste 18 Sudeste 0 1012.4 -0.2 89
2019-04-29 01:00:00 13.9 14 Este 22 Este 0 1012.6 0.2 88
2019-04-29 00:00:00 14.2 12 Sudeste 17 Sudeste 0 1012.5 0.7 88
2019-04-28 23:00:00 14.3 11 Sudeste 17 Sudeste 0 1012.6 1.2 86
2019-04-28 22:00:00 14.4 11 Este 21 Este 0 1012.4 0.9 86
2019-04-28 21:00:00 14.7 12 Sudeste 18 Sudeste 0 1011.8 0.1 82
2019-04-28 20:00:00 15.2 10 Sudeste 18 Este 0 1011.4 -0.7 80
2019-04-28 19:00:00 15.8 11 Sudeste 22 Este 0 1011.5 -0.8 75
2019-04-28 18:00:00 16.2 16 Sudeste 30 Sudeste 0 1011.7 -1 75
2019-04-28 17:00:00 18.2 23 Sudeste 35 Este 0 1012.1 -1.1 69
2019-04-28 16:00:00 18.7 23 Este 33 Este 0 1012.3 -1.5 66
2019-04-28 15:00:00 19.1 19 Este 32 Sudeste 0 1012.7 -1.7 51
2019-04-28 14:00:00 19.6 19 Sudeste 28 Sudeste 0 1013.2 -1.4 43
2019-04-28 13:00:00 19.4 3 Norte 18 Este 0 1013.8 -0.9 44
2019-04-28 12:00:00 18.2 5 Norte 15 Este 0 1014.4 -0.4 49
2019-04-28 11:00:00 17.1 5 Este 18 Sudeste 0 1014.6 -0.2 55
2019-04-28 10:00:00 15.6 4 Nordeste 13 Noroeste 0 1014.7 0.2 54
2019-04-28 09:00:00 14.1 9 Oeste 13 Oeste 0 1014.8 0.4 58
2019-04-28 08:00:00 10.5 11 Noroeste 15 Norte 0 1014.8 0.3 74
2019-04-28 07:00:00 8.3 8 Norte 11 Norte 0 1014.5 -0.1 84
2019-04-28 06:00:00 7.3 7 Este 11 Este 0 1014.4 -0.4 96
2019-04-28 05:00:00 9.6 4 Noroeste 11 Norte 0 1014.5 -0.6 92
2019-04-28 04:00:00 10.4 7 Noroeste 17 Norte 0 1014.6 -0.7 94
2019-04-28 03:00:00 11.1 11 Norte 13 Norte 0 1014.8 -0.7 92
2019-04-28 02:00:00 11.5 9 Norte 15 Norte 0 1015.1 -0.3 92
2019-04-28 01:00:00 11.5 10 Norte 13 Nordeste 0 1015.3 0.3 92
2019-04-28 00:00:00 12.2 10 Nordeste 15 Norte 0 1015.5 1.1 91
2019-04-27 23:00:00 12.7 11 Nordeste 13 Nordeste 0 1015.4 1.1 92
2019-04-27 22:00:00 12.6 9 Este 11 Este 0 1015 0.9 91
2019-04-27 21:00:00 14.5 8 Sudeste 18 Sur 0 1014.4 0.5 82
2019-04-27 20:00:00 16.3 16 Sudoeste 30 Sudoeste 0 1014.3 0.3 74
2019-04-27 19:00:00 17.3 22 Sudoeste 37 Sur 0 1014.1 -0.3 67
2019-04-27 18:00:00 18.4 26 Sudoeste 45 Sudoeste 0 1013.9 -0.5 55
2019-04-27 17:00:00 19.8 35 Sudoeste 50 Sudoeste 0 1014 -1.2 45
2019-04-27 16:00:00 21.3 34 Sudoeste 46 Sudoeste 0 1014.4 -1.7 44
2019-04-27 15:00:00 23.3 22 Sudoeste 37 Sudoeste 0 1014.4 -2 36
2019-04-27 14:00:00 21.8 12 Sudoeste 33 Sudoeste 0 1015.2 -1.1 38
2019-04-27 13:00:00 20.9 10 Sudeste 22 Sur 0 1016.1 -0.2 41
2019-04-27 12:00:00 18.9 9 Este 24 Oeste 0 1016.4 -0.1 44
2019-04-27 11:00:00 17.6 12 Oeste 26 Oeste 0 1016.3 -0.1 46
2019-04-27 10:00:00 16.1 5 Oeste 28 Oeste 0 1016.3 0.6 50
2019-04-27 09:00:00 14 14 Oeste 22 Oeste 0 1016.5 1.3 58
2019-04-27 08:00:00 10.4 2 Este 15 Noroeste 0 1016.4 1.2 73
2019-04-27 07:00:00 9.5 5 Oeste 17 Sur 0 1015.7 0.6 73
2019-04-27 06:00:00 9.8 10 Oeste 21 Oeste 0 1015.2 -0.1 72
2019-04-27 05:00:00 10.6 11 Oeste 17 Oeste 0 1015.2 0 68
2019-04-27 04:00:00 10.7 4 Oeste 15 Noroeste 0 1015.1 -0.2 64
2019-04-27 03:00:00 10.5 5 Noroeste 15 Norte 0 1015.3 0.1 67
2019-04-27 02:00:00 9.4 8 Nordeste 11 Nordeste 0 1015.2 0.2 79
2019-04-27 01:00:00 11.2 5 Noroeste 15 Noroeste 0 1015.3 1.1 80
2019-04-27 00:00:00 12.6 0 Calma 9 Sur 0 1015.2 2 78
2019-04-26 23:00:00 12.1 5 Sur 13 Oeste 0 1015 2.5 75
2019-04-26 22:00:00 14.2 11 Sudoeste 15 Sudoeste 0 1014.2 2.2 67
2019-04-26 21:00:00 18.4 9 Noroeste 37 Oeste 0 1013.2 1.7 38
2019-04-26 20:00:00 20.7 21 Oeste 39 Noroeste 0 1012.5 1.3 31
2019-04-26 19:00:00 21.7 24 Oeste 37 Oeste 0 1012 0.5 30
2019-04-26 18:00:00 22.3 28 Oeste 45 Oeste 0 1011.5 -0.3 29
2019-04-26 17:00:00 22.6 33 Oeste 52 Oeste 0 1011.2 0.1 30
2019-04-26 16:00:00 22.4 30 Oeste 52 Oeste 0 1011.5 -0.5 31
2019-04-26 15:00:00 22 28 Oeste 55 Oeste 0 1011.8 -0.3 33
2019-04-26 14:00:00 20.9 42 Noroeste 61 Noroeste 0 1011.1 -0.3 36
2019-04-26 13:00:00 20.3 36 Oeste 54 Noroeste 0 1012 1.2 37
2019-04-26 12:00:00 19.5 24 Oeste 42 Oeste 0 1012.1 1.9 38
2019-04-26 11:00:00 18.1 23 Sudoeste 39 Sudoeste 0 1011.4 1.8 45
2019-04-26 10:00:00 16.4 22 Sudoeste 30 Sudoeste 0 1010.8 2.2 47
2019-04-26 09:00:00 14.9 18 Oeste 35 Oeste 0 1010.2 2 50
2019-04-26 08:00:00 13.1 23 Oeste 48 Oeste 0 1009.6 1.8 53
2019-04-26 07:00:00 13 28 Oeste 46 Oeste 0 1008.6 1.3 53
2019-04-26 06:00:00 13.3 28 Oeste 45 Noroeste 0 1008.2 0.9 51
2019-04-26 05:00:00 12 13 Noroeste 26 Oeste 0 1007.8 0.7 59
2019-04-26 04:00:00 9.5 9 Este 13 Este 0 1007.3 0.8 73
2019-04-26 03:00:00 10.1 8 Oeste 15 Noroeste 0 1007.3 1.7 73
2019-04-26 02:00:00 10.2 8 Oeste 11 Oeste 0 1007.1 2 73
2019-04-26 01:00:00 10.9 7 Este 11 Norte 0 1006.5 2.6 69
2019-04-26 00:00:00 14.5 9 Oeste 17 Oeste 0 1005.6 2.7 50